sensor_id;sensor_type;location;lat;lon;timestamp;pressure;altitude;pressure_sealevel;temperature;humidity
70458;BME280;57919;56.194;95.716;2022-10-13T00:09:53;99487.19;;;1.74;82.23
70458;BME280;57919;56.194;95.716;2022-10-13T00:19:55;99491.22;;;1.83;82.54
70458;BME280;57919;56.194;95.716;2022-10-13T00:29:57;99515.50;;;1.96;82.43
70458;BME280;57919;56.194;95.716;2022-10-13T00:40:00;99542.59;;;2.05;82.27
70458;BME280;57919;56.194;95.716;2022-10-13T00:50:03;99553.91;;;2.10;82.02
70458;BME280;57919;56.194;95.716;2022-10-13T01:00:06;99557.50;;;2.09;81.56
70458;BME280;57919;56.194;95.716;2022-10-13T01:10:08;99580.41;;;2.32;81.49
70458;BME280;57919;56.194;95.716;2022-10-13T01:30:30;99618.25;;;2.76;82.15
70458;BME280;57919;56.194;95.716;2022-10-13T01:50:49;99634.31;;;3.45;81.21
70458;BME280;57919;56.194;95.716;2022-10-13T02:11:19;99661.59;;;4.49;78.66
70458;BME280;57919;56.194;95.716;2022-10-13T02:21:21;99670.22;;;4.86;78.48
70458;BME280;57919;56.194;95.716;2022-10-13T02:31:25;99682.69;;;5.77;75.67
70458;BME280;57919;56.194;95.716;2022-10-13T02:41:27;99687.13;;;5.48;75.35
70458;BME280;57919;56.194;95.716;2022-10-13T02:51:28;99719.09;;;5.37;75.99
70458;BME280;57919;56.194;95.716;2022-10-13T03:01:30;99741.56;;;5.50;76.19
70458;BME280;57919;56.194;95.716;2022-10-13T03:11:32;99756.56;;;5.38;75.77
70458;BME280;57919;56.194;95.716;2022-10-13T03:21:38;99751.31;;;5.21;74.73
70458;BME280;57919;56.194;95.716;2022-10-13T03:31:40;99760.97;;;5.39;76.16
70458;BME280;57919;56.194;95.716;2022-10-13T03:41:42;99761.94;;;5.38;74.85
70458;BME280;57919;56.194;95.716;2022-10-13T03:51:44;99770.81;;;5.55;75.24
70458;BME280;57919;56.194;95.716;2022-10-13T04:01:46;99785.31;;;5.21;74.36
70458;BME280;57919;56.194;95.716;2022-10-13T04:11:50;99782.28;;;5.11;74.78
70458;BME280;57919;56.194;95.716;2022-10-13T04:21:52;99787.66;;;5.27;75.35
70458;BME280;57919;56.194;95.716;2022-10-13T04:31:54;99775.84;;;5.91;74.57
70458;BME280;57919;56.194;95.716;2022-10-13T04:41:56;99788.97;;;6.68;71.53
70458;BME280;57919;56.194;95.716;2022-10-13T04:51:58;99801.28;;;5.54;73.29
70458;BME280;57919;56.194;95.716;2022-10-13T05:02:00;99804.88;;;5.07;75.05
70458;BME280;57919;56.194;95.716;2022-10-13T05:12:04;99808.94;;;5.14;75.97
70458;BME280;57919;56.194;95.716;2022-10-13T05:22:06;99788.00;;;4.89;76.68
70458;BME280;57919;56.194;95.716;2022-10-13T05:32:07;99822.16;;;5.17;76.88
70458;BME280;57919;56.194;95.716;2022-10-13T05:42:09;99827.94;;;5.57;75.20
70458;BME280;57919;56.194;95.716;2022-10-13T05:52:12;99840.69;;;5.83;74.48
70458;BME280;57919;56.194;95.716;2022-10-13T06:02:15;99828.22;;;5.82;74.18
70458;BME280;57919;56.194;95.716;2022-10-13T06:12:18;99833.69;;;5.96;72.54
70458;BME280;57919;56.194;95.716;2022-10-13T06:22:20;99839.63;;;6.31;71.98
70458;BME280;57919;56.194;95.716;2022-10-13T06:32:22;99830.34;;;6.51;71.69
70458;BME280;57919;56.194;95.716;2022-10-13T06:42:24;99844.16;;;6.59;70.04
70458;BME280;57919;56.194;95.716;2022-10-13T06:52:42;99848.97;;;6.54;69.48
70458;BME280;57919;56.194;95.716;2022-10-13T07:02:44;99850.50;;;6.58;67.94
70458;BME280;57919;56.194;95.716;2022-10-13T07:12:49;99838.78;;;6.73;68.97
70458;BME280;57919;56.194;95.716;2022-10-13T07:22:52;99841.66;;;6.99;67.35
70458;BME280;57919;56.194;95.716;2022-10-13T07:32:54;99853.19;;;7.01;67.28
70458;BME280;57919;56.194;95.716;2022-10-13T07:42:56;99851.38;;;6.87;66.52
70458;BME280;57919;56.194;95.716;2022-10-13T07:52:58;99868.81;;;7.23;65.49
70458;BME280;57919;56.194;95.716;2022-10-13T08:03:00;99860.84;;;7.21;65.61
70458;BME280;57919;56.194;95.716;2022-10-13T08:13:02;99869.44;;;7.55;63.53
70458;BME280;57919;56.194;95.716;2022-10-13T08:23:04;99878.94;;;7.05;63.41
70458;BME280;57919;56.194;95.716;2022-10-13T08:33:06;99869.09;;;6.47;64.96
70458;BME280;57919;56.194;95.716;2022-10-13T08:43:14;99890.72;;;6.15;64.52
70458;BME280;57919;56.194;95.716;2022-10-13T08:53:31;99903.91;;;6.04;64.59
70458;BME280;57919;56.194;95.716;2022-10-13T09:03:46;99917.09;;;5.93;64.20
70458;BME280;57919;56.194;95.716;2022-10-13T09:13:53;99917.19;;;5.76;63.24
70458;BME280;57919;56.194;95.716;2022-10-13T09:24:05;99918.84;;;5.47;64.33
70458;BME280;57919;56.194;95.716;2022-10-13T09:34:23;99933.19;;;5.62;64.81
70458;BME280;57919;56.194;95.716;2022-10-13T09:44:32;99934.41;;;5.56;65.69
70458;BME280;57919;56.194;95.716;2022-10-13T09:54:57;99951.28;;;5.58;65.32
70458;BME280;57919;56.194;95.716;2022-10-13T10:05:22;99959.69;;;5.52;66.16
70458;BME280;57919;56.194;95.716;2022-10-13T10:15:28;99963.06;;;5.40;66.25
70458;BME280;57919;56.194;95.716;2022-10-13T10:25:38;99981.56;;;5.29;66.47
70458;BME280;57919;56.194;95.716;2022-10-13T10:35:51;99992.31;;;5.11;66.92
70458;BME280;57919;56.194;95.716;2022-10-13T10:45:58;99996.31;;;4.87;67.45
70458;BME280;57919;56.194;95.716;2022-10-13T10:56:33;100004.91;;;4.76;67.94
70458;BME280;57919;56.194;95.716;2022-10-13T11:06:38;100028.41;;;4.71;68.91
70458;BME280;57919;56.194;95.716;2022-10-13T11:37:15;100011.69;;;4.13;69.61
70458;BME280;57919;56.194;95.716;2022-10-13T11:57:44;100056.06;;;4.18;70.39
70458;BME280;57919;56.194;95.716;2022-10-13T12:07:46;100061.09;;;4.25;70.13
70458;BME280;57919;56.194;95.716;2022-10-13T12:17:50;100041.94;;;4.15;70.27
70458;BME280;57919;56.194;95.716;2022-10-13T12:27:54;100067.13;;;4.11;70.70
70458;BME280;57919;56.194;95.716;2022-10-13T12:38:04;100072.06;;;4.01;71.11
70458;BME280;57919;56.194;95.716;2022-10-13T12:48:35;100072.56;;;3.91;71.36
70458;BME280;57919;56.194;95.716;2022-10-13T12:58:41;100075.81;;;3.78;71.71
70458;BME280;57919;56.194;95.716;2022-10-13T13:08:43;100080.44;;;3.75;71.69
70458;BME280;57919;56.194;95.716;2022-10-13T13:18:47;100100.13;;;3.74;72.00
70458;BME280;57919;56.194;95.716;2022-10-13T13:28:52;100085.88;;;3.73;71.98
70458;BME280;57919;56.194;95.716;2022-10-13T13:38:54;100097.81;;;3.66;72.35
70458;BME280;57919;56.194;95.716;2022-10-13T13:48:57;100102.84;;;3.53;72.57
70458;BME280;57919;56.194;95.716;2022-10-13T13:58:59;100088.31;;;3.59;72.07
70458;BME280;57919;56.194;95.716;2022-10-13T14:09:03;100096.72;;;3.70;72.60
70458;BME280;57919;56.194;95.716;2022-10-13T14:19:05;100101.84;;;3.75;72.12
70458;BME280;57919;56.194;95.716;2022-10-13T14:29:07;100099.03;;;3.59;72.59
70458;BME280;57919;56.194;95.716;2022-10-13T14:39:09;100099.56;;;3.47;72.94
70458;BME280;57919;56.194;95.716;2022-10-13T14:49:11;100107.53;;;3.48;73.08
70458;BME280;57919;56.194;95.716;2022-10-13T14:59:17;100119.72;;;3.35;73.42
70458;BME280;57919;56.194;95.716;2022-10-13T15:09:19;100127.19;;;3.27;73.40
70458;BME280;57919;56.194;95.716;2022-10-13T15:19:22;100143.38;;;3.24;73.52
70458;BME280;57919;56.194;95.716;2022-10-13T15:29:24;100143.56;;;3.19;73.66
70458;BME280;57919;56.194;95.716;2022-10-13T15:39:26;100147.53;;;3.11;74.00
70458;BME280;57919;56.194;95.716;2022-10-13T15:49:28;100144.56;;;2.97;73.87
70458;BME280;57919;56.194;95.716;2022-10-13T15:59:31;100163.75;;;3.06;74.31
70458;BME280;57919;56.194;95.716;2022-10-13T16:09:32;100147.78;;;3.05;74.25
70458;BME280;57919;56.194;95.716;2022-10-13T16:19:34;100161.13;;;2.84;74.16
70458;BME280;57919;56.194;95.716;2022-10-13T16:29:36;100159.69;;;2.54;74.83
70458;BME280;57919;56.194;95.716;2022-10-13T16:39:38;100171.91;;;2.38;74.90
70458;BME280;57919;56.194;95.716;2022-10-13T16:49:40;100167.19;;;2.22;75.35
70458;BME280;57919;56.194;95.716;2022-10-13T16:59:45;100182.66;;;2.36;75.52
70458;BME280;57919;56.194;95.716;2022-10-13T17:09:46;100172.75;;;2.62;75.36
70458;BME280;57919;56.194;95.716;2022-10-13T17:19:48;100165.91;;;2.76;75.31
70458;BME280;57919;56.194;95.716;2022-10-13T17:29:53;100181.72;;;3.03;75.10
70458;BME280;57919;56.194;95.716;2022-10-13T17:39:55;100185.94;;;3.08;75.33
70458;BME280;57919;56.194;95.716;2022-10-13T17:49:58;100201.66;;;3.16;75.16
70458;BME280;57919;56.194;95.716;2022-10-13T18:00:03;100209.69;;;3.16;75.17
70458;BME280;57919;56.194;95.716;2022-10-13T18:10:13;100204.19;;;3.19;75.48
70458;BME280;57919;56.194;95.716;2022-10-13T18:20:18;100209.16;;;3.28;75.63
70458;BME280;57919;56.194;95.716;2022-10-13T18:30:21;100203.00;;;3.26;75.38
70458;BME280;57919;56.194;95.716;2022-10-13T18:40:23;100208.63;;;3.40;75.76
70458;BME280;57919;56.194;95.716;2022-10-13T18:50:25;100210.16;;;3.26;75.83
70458;BME280;57919;56.194;95.716;2022-10-13T19:00:27;100221.63;;;3.07;76.26
70458;BME280;57919;56.194;95.716;2022-10-13T19:10:28;100234.44;;;2.99;76.25
70458;BME280;57919;56.194;95.716;2022-10-13T19:20:31;100235.44;;;2.97;76.35
70458;BME280;57919;56.194;95.716;2022-10-13T19:30:39;100239.03;;;2.96;76.37
70458;BME280;57919;56.194;95.716;2022-10-13T19:40:42;100247.97;;;2.95;76.27
70458;BME280;57919;56.194;95.716;2022-10-13T19:50:44;100245.88;;;3.03;76.33
70458;BME280;57919;56.194;95.716;2022-10-13T20:00:48;100254.38;;;3.12;76.60
70458;BME280;57919;56.194;95.716;2022-10-13T20:10:50;100258.22;;;3.27;76.32
70458;BME280;57919;56.194;95.716;2022-10-13T20:20:52;100270.53;;;3.31;76.49
70458;BME280;57919;56.194;95.716;2022-10-13T20:30:54;100283.78;;;3.34;76.13
70458;BME280;57919;56.194;95.716;2022-10-13T20:41:25;100284.19;;;3.45;75.83
70458;BME280;57919;56.194;95.716;2022-10-13T20:51:28;100282.13;;;3.52;75.66
70458;BME280;57919;56.194;95.716;2022-10-13T21:01:30;100300.25;;;3.45;76.04
70458;BME280;57919;56.194;95.716;2022-10-13T21:11:33;100304.03;;;3.40;75.86
70458;BME280;57919;56.194;95.716;2022-10-13T21:21:35;100309.03;;;3.27;76.81
70458;BME280;57919;56.194;95.716;2022-10-13T21:31:38;100331.03;;;3.12;76.72
70458;BME280;57919;56.194;95.716;2022-10-13T21:41:40;100336.38;;;3.12;76.75
70458;BME280;57919;56.194;95.716;2022-10-13T21:51:42;100359.63;;;3.10;76.79
70458;BME280;57919;56.194;95.716;2022-10-13T22:01:44;100356.94;;;3.10;76.75
70458;BME280;57919;56.194;95.716;2022-10-13T22:11:48;100370.44;;;3.07;76.59
70458;BME280;57919;56.194;95.716;2022-10-13T22:21:50;100385.84;;;3.00;77.09
70458;BME280;57919;56.194;95.716;2022-10-13T22:31:56;100381.97;;;2.85;77.60
70458;BME280;57919;56.194;95.716;2022-10-13T22:41:58;100408.50;;;2.90;77.49
70458;BME280;57919;56.194;95.716;2022-10-13T22:52:00;100408.91;;;3.03;76.95
70458;BME280;57919;56.194;95.716;2022-10-13T23:02:02;100423.56;;;2.92;77.10
70458;BME280;57919;56.194;95.716;2022-10-13T23:12:03;100447.09;;;3.06;77.18
70458;BME280;57919;56.194;95.716;2022-10-13T23:22:05;100444.25;;;3.11;77.06
70458;BME280;57919;56.194;95.716;2022-10-13T23:32:07;100455.91;;;3.08;77.09
70458;BME280;57919;56.194;95.716;2022-10-13T23:42:09;100440.09;;;2.79;77.29
70458;BME280;57919;56.194;95.716;2022-10-13T23:52:11;100466.75;;;2.80;77.54
